sensor_id;sensor_type;location;lat;lon;timestamp;pressure;altitude;pressure_sealevel;temperature;humidity
68141;BME280;54941;52.220;104.306;2023-06-10T00:00:10;95528.38;;;24.34;29.54
68141;BME280;54941;52.220;104.306;2023-06-10T00:02:36;95531.19;;;25.50;28.53
68141;BME280;54941;52.220;104.306;2023-06-10T00:05:03;95536.19;;;25.16;28.72
68141;BME280;54941;52.220;104.306;2023-06-10T00:07:30;95531.03;;;24.84;29.21
68141;BME280;54941;52.220;104.306;2023-06-10T00:09:56;95534.22;;;25.37;27.99
68141;BME280;54941;52.220;104.306;2023-06-10T00:12:23;95531.00;;;24.74;29.32
68141;BME280;54941;52.220;104.306;2023-06-10T00:14:50;95534.50;;;25.24;28.65
68141;BME280;54941;52.220;104.306;2023-06-10T00:17:17;95538.97;;;24.66;29.13
68141;BME280;54941;52.220;104.306;2023-06-10T00:19:43;95535.34;;;25.25;28.68
68141;BME280;54941;52.220;104.306;2023-06-10T00:22:09;95526.56;;;26.26;27.47
68141;BME280;54941;52.220;104.306;2023-06-10T00:24:36;95526.47;;;27.00;26.99
68141;BME280;54941;52.220;104.306;2023-06-10T00:27:02;95525.53;;;27.89;25.54
68141;BME280;54941;52.220;104.306;2023-06-10T00:29:28;95524.09;;;27.77;25.36
68141;BME280;54941;52.220;104.306;2023-06-10T00:31:56;95528.75;;;26.50;27.34
68141;BME280;54941;52.220;104.306;2023-06-10T00:34:22;95550.38;;;24.79;30.09
68141;BME280;54941;52.220;104.306;2023-06-10T00:36:49;95534.03;;;26.79;26.67
68141;BME280;54941;52.220;104.306;2023-06-10T00:39:16;95537.41;;;25.89;28.20
68141;BME280;54941;52.220;104.306;2023-06-10T00:41:43;95532.41;;;26.41;26.95
68141;BME280;54941;52.220;104.306;2023-06-10T00:44:09;95532.03;;;27.96;25.10
68141;BME280;54941;52.220;104.306;2023-06-10T00:46:35;95535.50;;;27.80;25.91
68141;BME280;54941;52.220;104.306;2023-06-10T00:49:03;95534.28;;;26.21;27.53
68141;BME280;54941;52.220;104.306;2023-06-10T00:51:30;95544.59;;;27.00;26.19
68141;BME280;54941;52.220;104.306;2023-06-10T00:53:57;95542.69;;;27.10;26.11
68141;BME280;54941;52.220;104.306;2023-06-10T00:56:23;95539.25;;;26.26;27.21
68141;BME280;54941;52.220;104.306;2023-06-10T00:58:50;95543.75;;;27.17;26.97
68141;BME280;54941;52.220;104.306;2023-06-10T01:01:17;95534.00;;;28.12;25.27
68141;BME280;54941;52.220;104.306;2023-06-10T01:03:43;95542.47;;;29.19;23.32
68141;BME280;54941;52.220;104.306;2023-06-10T01:06:17;95536.28;;;28.51;24.12
68141;BME280;54941;52.220;104.306;2023-06-10T01:08:50;95545.34;;;27.81;25.28
68141;BME280;54941;52.220;104.306;2023-06-10T01:11:22;95537.03;;;29.27;23.44
68141;BME280;54941;52.220;104.306;2023-06-10T01:13:50;95528.56;;;29.87;22.76
68141;BME280;54941;52.220;104.306;2023-06-10T01:16:18;95540.44;;;29.29;23.73
68141;BME280;54941;52.220;104.306;2023-06-10T01:18:45;95541.47;;;28.36;24.81
68141;BME280;54941;52.220;104.306;2023-06-10T01:21:19;95541.63;;;28.34;26.30
68141;BME280;54941;52.220;104.306;2023-06-10T01:23:46;95531.78;;;29.99;24.12
68141;BME280;54941;52.220;104.306;2023-06-10T01:26:12;95531.78;;;29.83;23.22
68141;BME280;54941;52.220;104.306;2023-06-10T01:28:45;95540.91;;;29.17;24.48
68141;BME280;54941;52.220;104.306;2023-06-10T01:31:17;95531.47;;;28.87;25.24
68141;BME280;54941;52.220;104.306;2023-06-10T01:33:46;95525.97;;;29.37;24.00
68141;BME280;54941;52.220;104.306;2023-06-10T01:36:16;95527.72;;;28.11;25.66
68141;BME280;54941;52.220;104.306;2023-06-10T01:38:44;95535.19;;;29.44;24.25
68141;BME280;54941;52.220;104.306;2023-06-10T01:41:12;95528.09;;;28.42;25.78
68141;BME280;54941;52.220;104.306;2023-06-10T01:43:39;95533.66;;;26.92;27.99
68141;BME280;54941;52.220;104.306;2023-06-10T01:46:06;95538.88;;;29.27;24.61
68141;BME280;54941;52.220;104.306;2023-06-10T01:48:32;95531.28;;;29.87;24.45
68141;BME280;54941;52.220;104.306;2023-06-10T01:50:59;95536.78;;;28.88;25.66
68141;BME280;54941;52.220;104.306;2023-06-10T01:53:27;95534.50;;;28.33;26.17
68141;BME280;54941;52.220;104.306;2023-06-10T01:55:53;95533.84;;;29.81;23.13
68141;BME280;54941;52.220;104.306;2023-06-10T01:58:19;95539.94;;;27.81;26.63
68141;BME280;54941;52.220;104.306;2023-06-10T02:00:46;95530.28;;;28.39;25.55
68141;BME280;54941;52.220;104.306;2023-06-10T02:03:12;95534.88;;;29.55;24.64
68141;BME280;54941;52.220;104.306;2023-06-10T02:05:39;95529.78;;;29.77;23.43
68141;BME280;54941;52.220;104.306;2023-06-10T02:08:05;95528.03;;;29.43;23.46
68141;BME280;54941;52.220;104.306;2023-06-10T02:10:33;95526.88;;;29.62;23.50
68141;BME280;54941;52.220;104.306;2023-06-10T02:13:00;95522.31;;;30.42;22.33
68141;BME280;54941;52.220;104.306;2023-06-10T02:15:26;95532.81;;;29.74;22.76
68141;BME280;54941;52.220;104.306;2023-06-10T02:17:53;95534.94;;;29.05;23.93
68141;BME280;54941;52.220;104.306;2023-06-10T02:20:19;95540.78;;;29.34;23.55
68141;BME280;54941;52.220;104.306;2023-06-10T02:22:46;95536.25;;;31.03;21.47
68141;BME280;54941;52.220;104.306;2023-06-10T02:25:12;95542.53;;;31.03;20.96
68141;BME280;54941;52.220;104.306;2023-06-10T02:27:40;95537.03;;;29.27;23.35
68141;BME280;54941;52.220;104.306;2023-06-10T02:30:07;95542.09;;;29.14;23.62
68141;BME280;54941;52.220;104.306;2023-06-10T02:32:34;95538.59;;;29.95;22.51
68141;BME280;54941;52.220;104.306;2023-06-10T02:35:00;95539.31;;;30.69;21.60
68141;BME280;54941;52.220;104.306;2023-06-10T02:37:27;95529.41;;;30.99;21.26
68141;BME280;54941;52.220;104.306;2023-06-10T02:39:54;95521.44;;;29.78;22.88
68141;BME280;54941;52.220;104.306;2023-06-10T02:42:20;95543.34;;;29.44;23.62
68141;BME280;54941;52.220;104.306;2023-06-10T02:44:48;95535.03;;;29.78;23.23
68141;BME280;54941;52.220;104.306;2023-06-10T02:47:15;95531.44;;;31.05;21.21
68141;BME280;54941;52.220;104.306;2023-06-10T02:49:41;95521.84;;;32.68;19.80
68141;BME280;54941;52.220;104.306;2023-06-10T02:52:08;95532.78;;;31.40;20.75
68141;BME280;54941;52.220;104.306;2023-06-10T02:54:34;95527.13;;;31.11;21.50
68141;BME280;54941;52.220;104.306;2023-06-10T02:57:00;95519.41;;;31.68;20.86
68141;BME280;54941;52.220;104.306;2023-06-10T02:59:27;95524.50;;;31.94;20.54
68141;BME280;54941;52.220;104.306;2023-06-10T03:01:55;95520.16;;;30.77;21.83
68141;BME280;54941;52.220;104.306;2023-06-10T03:04:21;95527.94;;;30.88;22.09
68141;BME280;54941;52.220;104.306;2023-06-10T03:06:47;95527.50;;;32.66;20.25
68141;BME280;54941;52.220;104.306;2023-06-10T03:09:14;95523.38;;;32.03;20.61
68141;BME280;54941;52.220;104.306;2023-06-10T03:11:40;95519.31;;;32.66;20.45
68141;BME280;54941;52.220;104.306;2023-06-10T03:14:06;95510.72;;;32.84;19.48
68141;BME280;54941;52.220;104.306;2023-06-10T03:16:34;95519.41;;;30.44;22.74
68141;BME280;54941;52.220;104.306;2023-06-10T03:19:02;95530.53;;;32.42;20.36
68141;BME280;54941;52.220;104.306;2023-06-10T03:21:28;95541.75;;;31.49;22.68
68141;BME280;54941;52.220;104.306;2023-06-10T03:23:55;95527.97;;;32.40;19.60
68141;BME280;54941;52.220;104.306;2023-06-10T03:26:21;95540.09;;;30.77;24.61
68141;BME280;54941;52.220;104.306;2023-06-10T03:28:47;95530.41;;;31.06;21.60
68141;BME280;54941;52.220;104.306;2023-06-10T03:31:14;95524.00;;;30.91;21.94
68141;BME280;54941;52.220;104.306;2023-06-10T03:33:40;95526.25;;;31.18;22.18
68141;BME280;54941;52.220;104.306;2023-06-10T03:36:08;95523.44;;;30.72;21.48
68141;BME280;54941;52.220;104.306;2023-06-10T03:38:34;95519.69;;;30.65;22.00
68141;BME280;54941;52.220;104.306;2023-06-10T03:41:01;95514.25;;;30.02;23.26
68141;BME280;54941;52.220;104.306;2023-06-10T03:43:27;95517.19;;;29.68;23.61
68141;BME280;54941;52.220;104.306;2023-06-10T03:45:53;95508.19;;;30.47;22.57
68141;BME280;54941;52.220;104.306;2023-06-10T03:48:20;95510.81;;;30.16;22.42
68141;BME280;54941;52.220;104.306;2023-06-10T03:50:46;95514.97;;;30.90;21.87
68141;BME280;54941;52.220;104.306;2023-06-10T03:53:14;95531.94;;;31.85;20.58
68141;BME280;54941;52.220;104.306;2023-06-10T03:55:40;95527.41;;;32.60;20.18
68141;BME280;54941;52.220;104.306;2023-06-10T03:58:07;95534.31;;;30.17;22.49
68141;BME280;54941;52.220;104.306;2023-06-10T04:00:33;95531.25;;;30.75;21.40
68141;BME280;54941;52.220;104.306;2023-06-10T04:02:59;95523.78;;;31.31;20.93
68141;BME280;54941;52.220;104.306;2023-06-10T04:05:26;95520.22;;;32.29;19.96
68141;BME280;54941;52.220;104.306;2023-06-10T04:07:52;95535.66;;;31.16;20.50
68141;BME280;54941;52.220;104.306;2023-06-10T04:10:20;95524.19;;;31.74;20.36
68141;BME280;54941;52.220;104.306;2023-06-10T04:12:46;95530.94;;;31.32;20.22
68141;BME280;54941;52.220;104.306;2023-06-10T04:15:13;95521.94;;;31.92;20.65
68141;BME280;54941;52.220;104.306;2023-06-10T04:17:39;95518.66;;;30.66;22.31
68141;BME280;54941;52.220;104.306;2023-06-10T04:20:07;95520.22;;;31.54;20.97
68141;BME280;54941;52.220;104.306;2023-06-10T04:22:33;95529.03;;;31.41;21.33
68141;BME280;54941;52.220;104.306;2023-06-10T04:24:59;95518.50;;;32.13;20.40
68141;BME280;54941;52.220;104.306;2023-06-10T04:27:28;95517.84;;;30.10;22.52
68141;BME280;54941;52.220;104.306;2023-06-10T04:29:55;95512.53;;;31.72;22.32
68141;BME280;54941;52.220;104.306;2023-06-10T04:32:21;95509.84;;;31.49;22.48
68141;BME280;54941;52.220;104.306;2023-06-10T04:34:48;95508.47;;;31.68;20.51
68141;BME280;54941;52.220;104.306;2023-06-10T04:37:14;95506.88;;;30.74;21.31
68141;BME280;54941;52.220;104.306;2023-06-10T04:39:40;95495.69;;;29.97;23.28
68141;BME280;54941;52.220;104.306;2023-06-10T04:42:07;95502.28;;;30.27;23.17
68141;BME280;54941;52.220;104.306;2023-06-10T04:44:35;95496.25;;;29.60;24.49
68141;BME280;54941;52.220;104.306;2023-06-10T04:47:02;95501.19;;;29.65;23.46
68141;BME280;54941;52.220;104.306;2023-06-10T04:49:28;95490.53;;;30.27;22.29
68141;BME280;54941;52.220;104.306;2023-06-10T04:51:54;95485.78;;;30.04;22.46
68141;BME280;54941;52.220;104.306;2023-06-10T04:54:21;95490.84;;;30.32;21.70
68141;BME280;54941;52.220;104.306;2023-06-10T04:56:47;95494.00;;;30.52;22.26
68141;BME280;54941;52.220;104.306;2023-06-10T04:59:14;95503.03;;;30.52;22.05
68141;BME280;54941;52.220;104.306;2023-06-10T05:01:42;95496.34;;;30.63;21.71
68141;BME280;54941;52.220;104.306;2023-06-10T05:04:08;95498.06;;;30.56;22.19
68141;BME280;54941;52.220;104.306;2023-06-10T05:06:35;95493.00;;;30.44;22.05
68141;BME280;54941;52.220;104.306;2023-06-10T05:09:01;95493.06;;;30.75;21.89
68141;BME280;54941;52.220;104.306;2023-06-10T05:11:27;95491.56;;;30.73;21.98
68141;BME280;54941;52.220;104.306;2023-06-10T05:13:54;95489.31;;;30.76;21.55
68141;BME280;54941;52.220;104.306;2023-06-10T05:16:21;95481.38;;;30.90;22.06
68141;BME280;54941;52.220;104.306;2023-06-10T05:18:48;95482.84;;;30.30;22.35
68141;BME280;54941;52.220;104.306;2023-06-10T05:21:15;95484.34;;;30.33;21.71
68141;BME280;54941;52.220;104.306;2023-06-10T05:23:41;95472.69;;;30.16;22.69
68141;BME280;54941;52.220;104.306;2023-06-10T05:26:07;95477.53;;;30.45;21.60
68141;BME280;54941;52.220;104.306;2023-06-10T05:28:34;95483.47;;;30.48;21.82
68141;BME280;54941;52.220;104.306;2023-06-10T05:31:00;95486.09;;;30.34;22.51
68141;BME280;54941;52.220;104.306;2023-06-10T05:33:26;95478.31;;;30.54;21.18
68141;BME280;54941;52.220;104.306;2023-06-10T05:35:54;95476.06;;;30.65;20.51
68141;BME280;54941;52.220;104.306;2023-06-10T05:38:21;95472.75;;;31.09;20.30
68141;BME280;54941;52.220;104.306;2023-06-10T05:40:47;95471.97;;;30.61;22.36
68141;BME280;54941;52.220;104.306;2023-06-10T05:43:14;95464.56;;;31.09;20.40
68141;BME280;54941;52.220;104.306;2023-06-10T05:45:40;95465.31;;;31.03;19.27
68141;BME280;54941;52.220;104.306;2023-06-10T05:48:06;95463.97;;;31.45;19.62
68141;BME280;54941;52.220;104.306;2023-06-10T05:50:34;95464.31;;;31.19;20.16
68141;BME280;54941;52.220;104.306;2023-06-10T05:53:02;95469.38;;;31.53;19.09
68141;BME280;54941;52.220;104.306;2023-06-10T05:55:28;95457.69;;;30.59;20.44
68141;BME280;54941;52.220;104.306;2023-06-10T05:58:01;95458.03;;;30.64;19.43
68141;BME280;54941;52.220;104.306;2023-06-10T06:00:27;95458.72;;;31.12;18.79
68141;BME280;54941;52.220;104.306;2023-06-10T06:02:54;95460.06;;;30.62;18.48
68141;BME280;54941;52.220;104.306;2023-06-10T06:05:20;95451.03;;;30.70;19.50
68141;BME280;54941;52.220;104.306;2023-06-10T06:07:46;95452.03;;;31.23;17.16
68141;BME280;54941;52.220;104.306;2023-06-10T06:10:14;95454.53;;;30.78;17.79
68141;BME280;54941;52.220;104.306;2023-06-10T06:12:41;95448.00;;;30.88;18.16
68141;BME280;54941;52.220;104.306;2023-06-10T06:15:08;95451.56;;;30.57;17.67
68141;BME280;54941;52.220;104.306;2023-06-10T06:17:34;95447.66;;;30.52;17.92
68141;BME280;54941;52.220;104.306;2023-06-10T06:20:01;95445.50;;;30.39;18.61
68141;BME280;54941;52.220;104.306;2023-06-10T06:22:28;95435.63;;;30.38;19.14
68141;BME280;54941;52.220;104.306;2023-06-10T06:24:54;95438.38;;;30.30;19.57
68141;BME280;54941;52.220;104.306;2023-06-10T06:27:22;95442.38;;;30.03;20.17
68141;BME280;54941;52.220;104.306;2023-06-10T06:29:48;95431.31;;;30.04;19.03
68141;BME280;54941;52.220;104.306;2023-06-10T06:32:15;95425.75;;;29.81;19.18
68141;BME280;54941;52.220;104.306;2023-06-10T06:34:41;95430.81;;;30.09;19.05
68141;BME280;54941;52.220;104.306;2023-06-10T06:37:07;95415.50;;;30.00;19.66
68141;BME280;54941;52.220;104.306;2023-06-10T06:39:33;95415.34;;;30.40;18.95
68141;BME280;54941;52.220;104.306;2023-06-10T06:42:00;95415.78;;;30.21;19.70
68141;BME280;54941;52.220;104.306;2023-06-10T06:44:27;95425.53;;;30.07;19.48
68141;BME280;54941;52.220;104.306;2023-06-10T06:46:54;95404.94;;;30.13;20.43
68141;BME280;54941;52.220;104.306;2023-06-10T06:49:20;95421.34;;;30.36;19.01
68141;BME280;54941;52.220;104.306;2023-06-10T06:51:47;95404.59;;;30.08;19.38
68141;BME280;54941;52.220;104.306;2023-06-10T06:54:13;95419.38;;;30.05;19.51
68141;BME280;54941;52.220;104.306;2023-06-10T06:56:39;95423.16;;;29.96;19.38
68141;BME280;54941;52.220;104.306;2023-06-10T06:59:05;95416.84;;;30.12;19.77
68141;BME280;54941;52.220;104.306;2023-06-10T07:01:34;95416.00;;;30.11;20.01
68141;BME280;54941;52.220;104.306;2023-06-10T07:04:00;95416.72;;;29.89;20.28
68141;BME280;54941;52.220;104.306;2023-06-10T07:06:26;95411.91;;;30.07;20.32
68141;BME280;54941;52.220;104.306;2023-06-10T07:08:53;95413.69;;;30.31;19.73
68141;BME280;54941;52.220;104.306;2023-06-10T07:11:19;95406.44;;;30.15;19.81
68141;BME280;54941;52.220;104.306;2023-06-10T07:13:45;95406.09;;;30.18;20.47
68141;BME280;54941;52.220;104.306;2023-06-10T07:16:11;95405.78;;;30.13;21.00
68141;BME280;54941;52.220;104.306;2023-06-10T07:18:39;95397.59;;;30.13;20.66
68141;BME280;54941;52.220;104.306;2023-06-10T07:21:06;95394.88;;;30.05;20.27
68141;BME280;54941;52.220;104.306;2023-06-10T07:23:33;95384.63;;;30.24;19.99
68141;BME280;54941;52.220;104.306;2023-06-10T07:25:59;95391.41;;;30.28;20.16
68141;BME280;54941;52.220;104.306;2023-06-10T07:28:25;95381.53;;;30.27;19.75
68141;BME280;54941;52.220;104.306;2023-06-10T07:30:52;95382.13;;;29.98;19.56
68141;BME280;54941;52.220;104.306;2023-06-10T07:33:18;95378.19;;;30.08;19.76
68141;BME280;54941;52.220;104.306;2023-06-10T07:35:46;95376.38;;;30.32;19.63
68141;BME280;54941;52.220;104.306;2023-06-10T07:38:12;95380.50;;;29.80;20.43
68141;BME280;54941;52.220;104.306;2023-06-10T07:40:38;95380.13;;;29.91;20.41
68141;BME280;54941;52.220;104.306;2023-06-10T07:43:05;95374.66;;;30.00;20.73
68141;BME280;54941;52.220;104.306;2023-06-10T07:45:31;95381.44;;;30.04;20.14
68141;BME280;54941;52.220;104.306;2023-06-10T07:47:57;95377.97;;;29.71;19.92
68141;BME280;54941;52.220;104.306;2023-06-10T07:50:24;95377.31;;;29.69;20.85
68141;BME280;54941;52.220;104.306;2023-06-10T07:52:52;95378.38;;;30.07;20.56
68141;BME280;54941;52.220;104.306;2023-06-10T07:55:18;95375.72;;;29.90;20.69
68141;BME280;54941;52.220;104.306;2023-06-10T07:57:45;95375.59;;;29.76;20.29
68141;BME280;54941;52.220;104.306;2023-06-10T08:00:11;95383.25;;;29.72;20.47
68141;BME280;54941;52.220;104.306;2023-06-10T08:02:38;95376.81;;;29.65;20.12
68141;BME280;54941;52.220;104.306;2023-06-10T08:05:05;95379.28;;;29.91;21.00
68141;BME280;54941;52.220;104.306;2023-06-10T08:07:31;95366.31;;;30.01;20.10
68141;BME280;54941;52.220;104.306;2023-06-10T08:10:01;95382.13;;;29.98;20.90
68141;BME280;54941;52.220;104.306;2023-06-10T08:12:28;95376.19;;;29.94;20.45
68141;BME280;54941;52.220;104.306;2023-06-10T08:14:55;95366.63;;;30.06;21.17
68141;BME280;54941;52.220;104.306;2023-06-10T08:17:21;95372.97;;;29.90;20.62
68141;BME280;54941;52.220;104.306;2023-06-10T08:19:47;95366.03;;;29.88;20.63
68141;BME280;54941;52.220;104.306;2023-06-10T08:22:14;95372.16;;;29.82;20.05
68141;BME280;54941;52.220;104.306;2023-06-10T08:24:40;95363.63;;;29.85;20.10
68141;BME280;54941;52.220;104.306;2023-06-10T08:27:08;95364.84;;;29.74;20.89
68141;BME280;54941;52.220;104.306;2023-06-10T08:29:34;95360.63;;;29.72;20.99
68141;BME280;54941;52.220;104.306;2023-06-10T08:32:00;95357.34;;;29.84;21.03
68141;BME280;54941;52.220;104.306;2023-06-10T08:34:27;95358.06;;;29.70;20.61
68141;BME280;54941;52.220;104.306;2023-06-10T08:36:53;95359.28;;;29.68;21.05
68141;BME280;54941;52.220;104.306;2023-06-10T08:39:21;95349.03;;;29.78;21.23
68141;BME280;54941;52.220;104.306;2023-06-10T08:41:51;95336.84;;;29.57;21.04
68141;BME280;54941;52.220;104.306;2023-06-10T08:44:28;95343.91;;;29.83;20.50
68141;BME280;54941;52.220;104.306;2023-06-10T08:46:56;95338.34;;;29.68;21.33
68141;BME280;54941;52.220;104.306;2023-06-10T08:49:26;95334.44;;;29.62;21.57
68141;BME280;54941;52.220;104.306;2023-06-10T08:51:54;95336.84;;;29.57;21.92
68141;BME280;54941;52.220;104.306;2023-06-10T08:54:22;95334.41;;;29.79;21.04
68141;BME280;54941;52.220;104.306;2023-06-10T08:56:51;95337.88;;;29.48;22.18
68141;BME280;54941;52.220;104.306;2023-06-10T08:59:20;95349.44;;;29.50;21.06
68141;BME280;54941;52.220;104.306;2023-06-10T09:01:48;95329.88;;;29.47;21.64
68141;BME280;54941;52.220;104.306;2023-06-10T09:04:16;95349.47;;;29.34;21.51
68141;BME280;54941;52.220;104.306;2023-06-10T09:06:42;95345.88;;;29.42;21.75
68141;BME280;54941;52.220;104.306;2023-06-10T09:09:09;95355.91;;;29.49;21.66
68141;BME280;54941;52.220;104.306;2023-06-10T09:11:37;95356.09;;;29.48;21.76
68141;BME280;54941;52.220;104.306;2023-06-10T09:14:03;95348.63;;;29.17;22.01
68141;BME280;54941;52.220;104.306;2023-06-10T09:16:29;95357.13;;;29.30;21.82
68141;BME280;54941;52.220;104.306;2023-06-10T09:18:58;95364.94;;;29.17;21.77
68141;BME280;54941;52.220;104.306;2023-06-10T09:21:24;95363.25;;;29.24;21.79
68141;BME280;54941;52.220;104.306;2023-06-10T09:23:51;95371.91;;;29.36;22.87
68141;BME280;54941;52.220;104.306;2023-06-10T09:26:18;95365.13;;;29.32;23.64
68141;BME280;54941;52.220;104.306;2023-06-10T09:28:44;95368.50;;;29.50;22.20
68141;BME280;54941;52.220;104.306;2023-06-10T09:31:14;95370.38;;;29.33;22.68
68141;BME280;54941;52.220;104.306;2023-06-10T09:33:40;95368.34;;;29.27;22.63
68141;BME280;54941;52.220;104.306;2023-06-10T09:36:08;95374.31;;;29.23;22.68
68141;BME280;54941;52.220;104.306;2023-06-10T09:38:35;95369.38;;;29.18;22.30
68141;BME280;54941;52.220;104.306;2023-06-10T09:41:03;95371.94;;;29.12;22.59
68141;BME280;54941;52.220;104.306;2023-06-10T09:43:40;95374.66;;;29.12;21.88
68141;BME280;54941;52.220;104.306;2023-06-10T09:46:07;95377.03;;;28.98;22.11
68141;BME280;54941;52.220;104.306;2023-06-10T09:48:35;95372.47;;;29.07;22.64
68141;BME280;54941;52.220;104.306;2023-06-10T09:51:10;95374.31;;;28.98;21.87
68141;BME280;54941;52.220;104.306;2023-06-10T09:53:37;95369.34;;;28.77;22.46
68141;BME280;54941;52.220;104.306;2023-06-10T09:56:04;95380.22;;;28.69;22.52
68141;BME280;54941;52.220;104.306;2023-06-10T09:58:37;95379.56;;;28.75;22.70
68141;BME280;54941;52.220;104.306;2023-06-10T10:01:09;95390.78;;;28.72;22.70
68141;BME280;54941;52.220;104.306;2023-06-10T10:03:43;95380.91;;;28.71;23.00
68141;BME280;54941;52.220;104.306;2023-06-10T10:06:12;95384.78;;;28.69;22.37
68141;BME280;54941;52.220;104.306;2023-06-10T10:08:38;95396.50;;;28.53;23.24
68141;BME280;54941;52.220;104.306;2023-06-10T10:11:05;95393.78;;;28.53;23.25
68141;BME280;54941;52.220;104.306;2023-06-10T10:13:33;95392.59;;;28.56;23.14
68141;BME280;54941;52.220;104.306;2023-06-10T10:16:03;95396.31;;;28.38;22.41
68141;BME280;54941;52.220;104.306;2023-06-10T10:18:31;95400.00;;;28.29;22.89
68141;BME280;54941;52.220;104.306;2023-06-10T10:21:01;95404.06;;;28.25;22.42
68141;BME280;54941;52.220;104.306;2023-06-10T10:23:40;95407.63;;;28.26;23.53
68141;BME280;54941;52.220;104.306;2023-06-10T10:26:10;95407.25;;;28.20;24.29
68141;BME280;54941;52.220;104.306;2023-06-10T10:28:41;95407.47;;;28.27;24.02
68141;BME280;54941;52.220;104.306;2023-06-10T10:31:10;95402.63;;;28.13;24.00
68141;BME280;54941;52.220;104.306;2023-06-10T10:33:54;95412.47;;;28.06;23.97
68141;BME280;54941;52.220;104.306;2023-06-10T10:36:23;95421.13;;;28.09;23.67
68141;BME280;54941;52.220;104.306;2023-06-10T10:38:51;95416.66;;;28.00;24.83
68141;BME280;54941;52.220;104.306;2023-06-10T10:41:19;95410.66;;;27.88;26.28
68141;BME280;54941;52.220;104.306;2023-06-10T10:43:46;95399.28;;;27.85;24.67
68141;BME280;54941;52.220;104.306;2023-06-10T10:46:16;95399.06;;;27.78;24.50
68141;BME280;54941;52.220;104.306;2023-06-10T10:48:43;95402.69;;;27.79;24.27
68141;BME280;54941;52.220;104.306;2023-06-10T10:51:10;95402.13;;;27.75;24.45
68141;BME280;54941;52.220;104.306;2023-06-10T10:53:37;95409.66;;;27.63;24.32
68141;BME280;54941;52.220;104.306;2023-06-10T10:56:12;95408.47;;;27.58;24.42
68141;BME280;54941;52.220;104.306;2023-06-10T10:58:39;95415.84;;;27.48;24.60
68141;BME280;54941;52.220;104.306;2023-06-10T11:01:12;95417.97;;;27.36;25.80
68141;BME280;54941;52.220;104.306;2023-06-10T11:03:43;95417.47;;;27.32;24.68
68141;BME280;54941;52.220;104.306;2023-06-10T11:06:12;95418.75;;;27.28;25.20
68141;BME280;54941;52.220;104.306;2023-06-10T11:08:50;95421.72;;;27.17;25.72
68141;BME280;54941;52.220;104.306;2023-06-10T11:11:23;95420.59;;;27.02;27.30
68141;BME280;54941;52.220;104.306;2023-06-10T11:14:05;95424.00;;;27.04;24.92
68141;BME280;54941;52.220;104.306;2023-06-10T11:16:39;95415.19;;;27.02;25.08
68141;BME280;54941;52.220;104.306;2023-06-10T11:19:06;95421.66;;;26.91;25.43
68141;BME280;54941;52.220;104.306;2023-06-10T11:21:32;95414.28;;;26.84;25.75
68141;BME280;54941;52.220;104.306;2023-06-10T11:24:12;95416.38;;;26.72;26.80
68141;BME280;54941;52.220;104.306;2023-06-10T11:26:44;95421.53;;;26.75;25.08
68141;BME280;54941;52.220;104.306;2023-06-10T11:29:10;95424.47;;;26.64;25.50
68141;BME280;54941;52.220;104.306;2023-06-10T11:31:54;95423.91;;;26.60;26.47
68141;BME280;54941;52.220;104.306;2023-06-10T11:34:24;95414.44;;;26.46;25.78
68141;BME280;54941;52.220;104.306;2023-06-10T11:36:51;95422.09;;;26.51;25.70
68141;BME280;54941;52.220;104.306;2023-06-10T11:39:19;95430.03;;;26.35;25.79
68141;BME280;54941;52.220;104.306;2023-06-10T11:41:48;95432.25;;;26.22;26.20
68141;BME280;54941;52.220;104.306;2023-06-10T11:44:14;95432.06;;;26.05;27.75
68141;BME280;54941;52.220;104.306;2023-06-10T11:46:41;95438.66;;;25.93;27.80
68141;BME280;54941;52.220;104.306;2023-06-10T11:49:07;95440.28;;;25.86;27.33
68141;BME280;54941;52.220;104.306;2023-06-10T11:51:35;95450.41;;;25.84;27.35
68141;BME280;54941;52.220;104.306;2023-06-10T11:54:02;95452.28;;;25.74;27.43
68141;BME280;54941;52.220;104.306;2023-06-10T11:56:30;95456.53;;;25.67;26.74
68141;BME280;54941;52.220;104.306;2023-06-10T11:58:59;95452.84;;;25.68;26.98
68141;BME280;54941;52.220;104.306;2023-06-10T12:01:26;95456.84;;;25.64;26.55
68141;BME280;54941;52.220;104.306;2023-06-10T12:04:01;95457.56;;;25.56;26.90
68141;BME280;54941;52.220;104.306;2023-06-10T12:06:28;95458.31;;;25.48;27.51
68141;BME280;54941;52.220;104.306;2023-06-10T12:09:03;95459.31;;;25.47;26.97
68141;BME280;54941;52.220;104.306;2023-06-10T12:11:29;95459.19;;;25.39;27.20
68141;BME280;54941;52.220;104.306;2023-06-10T12:13:56;95467.59;;;25.36;26.59
68141;BME280;54941;52.220;104.306;2023-06-10T12:16:23;95468.16;;;25.30;26.73
68141;BME280;54941;52.220;104.306;2023-06-10T12:18:50;95464.31;;;25.23;26.95
68141;BME280;54941;52.220;104.306;2023-06-10T12:21:18;95479.44;;;25.16;27.11
68141;BME280;54941;52.220;104.306;2023-06-10T12:24:02;95488.09;;;25.10;27.23
68141;BME280;54941;52.220;104.306;2023-06-10T12:26:39;95492.50;;;24.91;27.64
68141;BME280;54941;52.220;104.306;2023-06-10T12:29:23;95494.88;;;24.56;33.04
68141;BME280;54941;52.220;104.306;2023-06-10T12:31:59;95502.88;;;23.86;36.74
68141;BME280;54941;52.220;104.306;2023-06-10T12:34:36;95499.28;;;23.35;34.09
68141;BME280;54941;52.220;104.306;2023-06-10T12:37:04;95502.44;;;23.40;33.55
68141;BME280;54941;52.220;104.306;2023-06-10T12:39:31;95500.13;;;23.14;34.94
68141;BME280;54941;52.220;104.306;2023-06-10T12:41:57;95501.59;;;23.18;34.56